createdAt,value
2022-08-20T00:02:16.560Z,58.41
2022-08-20T00:04:45.742Z,58.50
2022-08-20T00:07:14.535Z,58.43
2022-08-20T00:09:43.587Z,58.72
2022-08-20T00:12:13.576Z,58.55
2022-08-20T00:14:42.167Z,58.52
2022-08-20T00:17:11.957Z,58.76
2022-08-20T00:19:40.498Z,58.58
2022-08-20T00:22:08.956Z,58.37
2022-08-20T00:24:37.701Z,58.46
2022-08-20T00:27:06.266Z,58.32
2022-08-20T00:29:35.229Z,58.50
2022-08-20T00:32:03.797Z,58.60
2022-08-20T00:34:33.580Z,58.45
2022-08-20T00:37:02.062Z,58.76
2022-08-20T00:39:30.636Z,58.55
2022-08-20T00:41:59.373Z,58.76
2022-08-20T00:44:27.909Z,58.56
2022-08-20T00:46:56.522Z,58.41
2022-08-20T00:49:27.962Z,58.64
2022-08-20T00:52:02.196Z,59.05
2022-08-20T00:54:33.631Z,58.74
2022-08-20T00:57:04.911Z,58.77
2022-08-20T00:59:37.234Z,58.64
2022-08-20T01:02:09.101Z,58.63
2022-08-20T01:04:38.290Z,58.74
2022-08-20T01:07:08.501Z,58.69
2022-08-20T01:09:57.794Z,58.66
2022-08-20T01:12:28.982Z,58.67
2022-08-20T01:14:59.842Z,58.50
2022-08-20T01:17:30.111Z,58.39
2022-08-20T01:20:07.889Z,58.87
2022-08-20T01:23:00.190Z,58.58
2022-08-20T01:25:34.034Z,58.59
2022-08-20T01:28:04.792Z,58.78
2022-08-20T01:30:34.038Z,58.67
2022-08-20T01:33:02.899Z,58.68
2022-08-20T01:35:32.654Z,58.38
2022-08-20T01:38:01.382Z,58.72
2022-08-20T01:40:41.556Z,58.48
2022-08-20T01:43:12.346Z,58.89
2022-08-20T01:45:43.014Z,58.73
2022-08-20T01:48:12.070Z,58.72
2022-08-20T01:50:43.330Z,58.60
2022-08-20T01:53:20.108Z,58.63
2022-08-20T01:55:48.709Z,58.74
2022-08-20T01:58:18.460Z,58.56
2022-08-20T02:00:47.462Z,58.60
2022-08-20T02:03:16.003Z,58.53
2022-08-20T02:05:45.143Z,58.69
2022-08-20T02:08:13.580Z,58.78
2022-08-20T02:10:42.003Z,58.69
2022-08-20T02:13:10.502Z,58.82
2022-08-20T02:15:43.082Z,58.60
2022-08-20T02:18:14.252Z,58.62
2022-08-20T02:20:43.392Z,58.51
2022-08-20T02:23:13.032Z,58.77
2022-08-20T02:25:43.582Z,58.63
2022-08-20T02:28:14.127Z,58.56
2022-08-20T02:30:46.949Z,58.77
2022-08-20T02:33:18.193Z,58.78
2022-08-20T02:35:48.232Z,58.90
2022-08-20T02:38:17.020Z,58.96
2022-08-20T02:40:49.054Z,58.89
2022-08-20T02:43:20.169Z,58.90
2022-08-20T02:45:50.137Z,59.02
2022-08-20T02:48:20.893Z,58.47
2022-08-20T02:50:54.170Z,59.05
2022-08-20T02:53:23.434Z,58.88
2022-08-20T02:55:52.009Z,58.83
2022-08-20T02:58:21.322Z,59.59
2022-08-20T03:00:51.770Z,58.83
2022-08-20T03:03:22.607Z,58.96
2022-08-20T03:05:52.986Z,59.03
2022-08-20T03:08:22.609Z,59.18
2022-08-20T03:10:52.379Z,59.13
2022-08-20T03:13:21.634Z,59.25
2022-08-20T03:15:57.952Z,59.42
2022-08-20T03:18:30.189Z,59.33
2022-08-20T03:20:58.676Z,59.00
2022-08-20T03:23:27.158Z,59.17
2022-08-20T03:25:55.773Z,59.34
2022-08-20T03:28:24.278Z,59.28
2022-08-20T03:30:54.731Z,59.08
2022-08-20T03:33:23.565Z,59.09
2022-08-20T03:35:52.301Z,59.60
2022-08-20T03:38:33.234Z,59.34
2022-08-20T03:41:02.405Z,59.35
2022-08-20T03:43:31.334Z,59.45
2022-08-20T03:46:01.379Z,59.33
2022-08-20T03:48:30.209Z,59.12
2022-08-20T03:51:00.853Z,59.50
2022-08-20T03:53:31.535Z,59.47
2022-08-20T03:56:03.284Z,59.25
2022-08-20T03:58:35.883Z,59.47
2022-08-20T04:01:36.867Z,59.40
2022-08-20T04:03:58.686Z,59.25
2022-08-20T04:06:27.777Z,59.31
2022-08-20T04:08:56.281Z,59.52
2022-08-20T04:11:24.844Z,59.62
2022-08-20T04:13:53.290Z,59.53
2022-08-20T04:16:24.248Z,59.58
2022-08-20T04:19:01.335Z,59.29
2022-08-20T04:21:33.089Z,59.25
2022-08-20T04:24:02.271Z,59.17
2022-08-20T04:26:30.984Z,59.21
2022-08-20T04:28:59.491Z,59.03
2022-08-20T04:31:33.046Z,59.32
2022-08-20T04:34:02.178Z,59.68
2022-08-20T04:36:30.750Z,60.47
2022-08-20T04:38:59.260Z,60.74
2022-08-20T04:41:27.984Z,61.25
2022-08-20T04:43:58.032Z,60.83
2022-08-20T04:46:29.330Z,61.75
2022-08-20T04:48:58.162Z,61.85
2022-08-20T04:51:27.063Z,62.06
2022-08-20T04:53:57.411Z,62.55
2022-08-20T04:56:27.749Z,62.71
2022-08-20T04:58:59.068Z,62.85
2022-08-20T05:01:29.994Z,62.60
2022-08-20T05:03:59.202Z,62.80
2022-08-20T05:06:29.989Z,62.64
2022-08-20T05:08:59.720Z,62.68
2022-08-20T05:11:33.773Z,62.92
2022-08-20T05:14:05.425Z,63.03
2022-08-20T05:16:38.779Z,62.95
2022-08-20T05:19:08.640Z,62.90
2022-08-20T05:21:37.930Z,62.66
2022-08-20T05:24:06.788Z,62.12
2022-08-20T05:26:35.395Z,62.33
2022-08-20T05:29:06.748Z,62.08
2022-08-20T05:31:37.506Z,62.21
2022-08-20T05:34:09.812Z,61.89
2022-08-20T05:36:40.044Z,62.10
2022-08-20T05:39:09.313Z,61.68
2022-08-20T05:41:37.865Z,61.53
2022-08-20T05:44:10.034Z,62.04
2022-08-20T05:46:41.113Z,61.86
2022-08-20T05:49:10.016Z,62.13
2022-08-20T05:51:38.482Z,61.90
2022-08-20T05:54:07.395Z,61.93
2022-08-20T05:56:36.336Z,61.84
2022-08-20T05:59:07.138Z,61.70
2022-08-20T06:01:38.023Z,62.11
2022-08-20T06:04:26.743Z,61.83
2022-08-20T06:06:57.595Z,61.87
2022-08-20T06:09:31.246Z,61.94
2022-08-20T06:12:02.080Z,61.87
2022-08-20T06:14:31.160Z,62.02
2022-08-20T06:17:05.371Z,61.99
2022-08-20T06:19:36.516Z,61.89
2022-08-20T06:22:06.871Z,61.92
2022-08-20T06:24:46.855Z,61.89
2022-08-20T06:27:16.887Z,61.97
2022-08-20T06:29:45.668Z,61.90
2022-08-20T06:32:15.241Z,62.02
2022-08-20T06:34:49.824Z,61.98
2022-08-20T06:37:21.860Z,62.06
2022-08-20T06:39:50.884Z,61.88
2022-08-20T06:42:20.836Z,62.37
2022-08-20T06:44:50.901Z,62.46
2022-08-20T06:47:20.493Z,62.44
2022-08-20T06:49:50.311Z,61.83
2022-08-20T06:52:19.019Z,62.30
2022-08-20T06:54:48.057Z,62.23
2022-08-20T06:57:17.322Z,62.30
2022-08-20T06:59:49.037Z,62.40
2022-08-20T07:02:30.112Z,62.09
2022-08-20T07:05:00.481Z,62.22
2022-08-20T07:07:29.051Z,62.15
2022-08-20T07:10:01.643Z,62.28
2022-08-20T07:12:30.187Z,62.03
2022-08-20T07:14:58.665Z,62.13
2022-08-20T07:17:27.173Z,62.19
2022-08-20T07:19:55.584Z,62.16
2022-08-20T07:22:25.864Z,61.99
2022-08-20T07:24:54.303Z,62.11
2022-08-20T07:27:23.636Z,62.31
2022-08-20T07:30:12.879Z,62.07
2022-08-20T07:32:45.355Z,62.05
2022-08-20T07:35:15.578Z,62.12
2022-08-20T07:37:47.068Z,62.14
2022-08-20T07:40:18.239Z,62.01
2022-08-20T07:42:50.342Z,62.04
2022-08-20T07:45:19.487Z,61.83
2022-08-20T07:47:49.370Z,61.86
2022-08-20T07:50:20.161Z,62.13
2022-08-20T07:52:52.546Z,61.94
2022-08-20T07:55:22.416Z,62.13
2022-08-20T07:57:51.745Z,61.99
2022-08-20T08:00:24.301Z,62.04
2022-08-20T08:02:52.936Z,62.08
2022-08-20T08:05:21.669Z,61.74
2022-08-20T08:07:52.220Z,61.75
2022-08-20T08:10:23.627Z,61.94
2022-08-20T08:12:54.913Z,61.76
2022-08-20T08:15:25.242Z,62.07
2022-08-20T08:17:55.468Z,61.95
2022-08-20T08:20:24.361Z,61.96
2022-08-20T08:22:54.537Z,61.98
2022-08-20T08:25:23.056Z,62.00
2022-08-20T08:27:51.577Z,62.03
2022-08-20T08:30:20.799Z,61.75
2022-08-20T08:33:06.732Z,61.98
2022-08-20T08:35:35.356Z,62.28
2022-08-20T08:38:05.149Z,62.29
2022-08-20T08:40:35.147Z,62.18
2022-08-20T08:43:04.580Z,62.05
2022-08-20T08:45:36.777Z,62.04
2022-08-20T08:48:05.990Z,62.16
2022-08-20T08:50:54.005Z,62.13
2022-08-20T08:53:27.653Z,62.09
2022-08-20T08:55:56.143Z,62.17
2022-08-20T08:58:24.675Z,62.14
2022-08-20T09:00:56.371Z,62.28
2022-08-20T09:03:29.380Z,61.95
2022-08-20T09:06:02.153Z,62.33
2022-08-20T09:08:34.079Z,62.19
2022-08-20T09:11:04.415Z,62.59
2022-08-20T09:13:33.133Z,62.23
2022-08-20T09:16:01.910Z,62.02
2022-08-20T09:18:30.400Z,62.25
2022-08-20T09:20:59.017Z,62.55
2022-08-20T09:23:27.530Z,62.35
2022-08-20T09:25:57.563Z,62.21
2022-08-20T09:28:26.565Z,62.49
2022-08-20T09:31:01.302Z,62.01
2022-08-20T09:33:33.222Z,62.44
2022-08-20T09:36:01.715Z,62.47
2022-08-20T09:38:31.247Z,62.37
2022-08-20T09:41:01.168Z,62.43
2022-08-20T09:43:29.661Z,62.46
2022-08-20T09:45:58.122Z,62.72
2022-08-20T09:48:29.765Z,62.75
2022-08-20T09:51:01.312Z,62.55
2022-08-20T09:53:30.796Z,62.92
2022-08-20T09:56:01.234Z,63.10
2022-08-20T09:58:35.342Z,63.12
2022-08-20T10:01:08.123Z,62.90
2022-08-20T10:03:43.496Z,62.95
2022-08-20T10:06:14.736Z,63.84
2022-08-20T10:08:43.396Z,63.08
2022-08-20T10:11:13.413Z,63.48
2022-08-20T10:13:42.035Z,63.08
2022-08-20T10:16:10.511Z,63.66
2022-08-20T10:18:38.969Z,63.45
2022-08-20T10:21:10.717Z,63.79
2022-08-20T10:23:39.275Z,63.42
2022-08-20T10:26:08.822Z,63.48
2022-08-20T10:28:38.890Z,63.64
2022-08-20T10:31:08.288Z,63.69
2022-08-20T10:33:37.950Z,63.76
2022-08-20T10:36:10.842Z,63.27
2022-08-20T10:38:39.741Z,63.89
2022-08-20T10:41:08.961Z,63.94
2022-08-20T10:43:38.774Z,64.01
2022-08-20T10:46:07.561Z,63.68
2022-08-20T10:48:36.150Z,64.14
2022-08-20T10:51:04.898Z,63.91
2022-08-20T10:53:33.755Z,63.96
2022-08-20T10:56:02.462Z,64.18
2022-08-20T10:58:37.629Z,64.17
2022-08-20T11:01:10.450Z,64.48
2022-08-20T11:03:38.978Z,64.75
2022-08-20T11:06:07.928Z,64.68
2022-08-20T11:08:36.407Z,64.57
2022-08-20T11:11:05.857Z,64.55
2022-08-20T11:13:35.006Z,65.00
2022-08-20T11:16:04.984Z,65.16
2022-08-20T11:18:34.904Z,65.07
2022-08-20T11:21:03.629Z,65.42
2022-08-20T11:23:32.086Z,65.30
2022-08-20T11:26:01.873Z,65.14
2022-08-20T11:28:33.141Z,65.01
2022-08-20T11:31:02.341Z,65.16
2022-08-20T11:33:30.816Z,65.07
2022-08-20T11:36:00.903Z,65.39
2022-08-20T11:38:30.335Z,65.45
2022-08-20T11:40:59.308Z,64.92
2022-08-20T11:43:27.783Z,65.24
2022-08-20T11:45:57.292Z,65.31
2022-08-20T11:48:25.805Z,64.57
2022-08-20T11:50:55.220Z,64.28
2022-08-20T11:53:25.139Z,64.43
2022-08-20T11:55:54.003Z,64.11
2022-08-20T11:58:22.624Z,65.32
2022-08-20T12:00:51.198Z,65.34
2022-08-20T12:03:19.683Z,65.67
2022-08-20T12:05:48.866Z,65.40
2022-08-20T12:08:25.120Z,65.64
2022-08-20T12:10:59.148Z,65.35
2022-08-20T12:13:30.878Z,65.77
2022-08-20T12:16:16.246Z,65.48
2022-08-20T12:18:44.719Z,65.47
2022-08-20T12:21:13.204Z,64.91
2022-08-20T12:23:41.782Z,65.28
2022-08-20T12:26:11.952Z,65.38
2022-08-20T12:28:40.549Z,64.33
2022-08-20T12:31:08.973Z,64.84
2022-08-20T12:33:37.409Z,65.72
2022-08-20T12:36:06.370Z,65.82
2022-08-20T12:38:34.921Z,65.25
2022-08-20T12:41:03.348Z,65.76
2022-08-20T12:43:33.197Z,66.39
2022-08-20T12:46:01.633Z,66.02
2022-08-20T12:48:30.129Z,66.19
2022-08-20T12:50:58.629Z,65.92
2022-08-20T12:53:27.168Z,66.62
2022-08-20T12:55:55.635Z,66.53
2022-08-20T12:58:24.674Z,66.66
2022-08-20T13:00:54.453Z,66.80
2022-08-20T13:03:22.885Z,66.69
2022-08-20T13:05:51.327Z,66.84
2022-08-20T13:08:20.046Z,66.77
2022-08-20T13:10:48.815Z,67.03
2022-08-20T13:13:20.547Z,66.99
2022-08-20T13:15:51.061Z,67.13
2022-08-20T13:18:21.481Z,67.08
2022-08-20T13:20:50.275Z,67.19
2022-08-20T13:23:18.753Z,67.74
2022-08-20T13:25:47.451Z,67.45
2022-08-20T13:28:15.876Z,67.75
2022-08-20T13:30:44.326Z,67.98
2022-08-20T13:33:12.753Z,67.74
2022-08-20T13:35:42.550Z,67.44
2022-08-20T13:38:11.031Z,67.74
2022-08-20T13:40:40.186Z,67.92
2022-08-20T13:43:12.040Z,68.10
2022-08-20T13:45:41.806Z,68.06
2022-08-20T13:48:14.801Z,68.20
2022-08-20T13:50:47.292Z,68.23
2022-08-20T13:53:17.161Z,68.28
2022-08-20T13:55:45.911Z,68.50
2022-08-20T13:58:14.426Z,68.45
2022-08-20T14:00:42.994Z,68.26
2022-08-20T14:03:12.236Z,68.63
2022-08-20T14:05:42.491Z,68.40
2022-08-20T14:08:14.022Z,68.44
2022-08-20T14:10:43.593Z,68.75
2022-08-20T14:13:15.369Z,68.76
2022-08-20T14:15:44.690Z,68.65
2022-08-20T14:18:14.339Z,68.70
2022-08-20T14:20:45.571Z,68.70
2022-08-20T14:23:16.100Z,68.78
2022-08-20T14:25:46.686Z,68.42
2022-08-20T14:28:18.212Z,68.13
2022-08-20T14:30:52.572Z,67.89
2022-08-20T14:33:22.736Z,67.74
2022-08-20T14:35:51.191Z,67.67
2022-08-20T14:38:21.068Z,67.29
2022-08-20T14:40:50.413Z,67.04
2022-08-20T14:43:19.269Z,66.62
2022-08-20T14:45:47.842Z,66.63
2022-08-20T14:48:16.328Z,66.32
2022-08-20T14:50:44.758Z,66.00
2022-08-20T14:53:13.148Z,65.98
2022-08-20T14:55:42.962Z,65.87
2022-08-20T14:58:13.206Z,65.91
2022-08-20T15:00:42.947Z,65.79
2022-08-20T15:03:13.367Z,65.65
2022-08-20T15:05:42.009Z,65.51
2022-08-20T15:08:11.021Z,65.68
2022-08-20T15:10:40.245Z,65.51
2022-08-20T15:13:10.208Z,65.68
2022-08-20T15:15:39.416Z,65.49
2022-08-20T15:18:08.338Z,65.44
2022-08-20T15:20:37.955Z,65.91
2022-08-20T15:23:07.308Z,66.82
2022-08-20T15:25:37.901Z,67.19
2022-08-20T15:28:08.841Z,67.37
2022-08-20T15:30:39.784Z,67.47
2022-08-20T15:33:08.467Z,67.55
2022-08-20T15:35:37.316Z,67.48
2022-08-20T15:38:05.745Z,67.26
2022-08-20T15:40:34.252Z,67.43
2022-08-20T15:43:03.935Z,67.56
2022-08-20T15:45:33.278Z,67.40
2022-08-20T15:48:09.436Z,67.64
2022-08-20T15:50:57.813Z,67.42
2022-08-20T15:53:30.544Z,67.55
2022-08-20T15:56:06.114Z,67.39
2022-08-20T15:58:40.987Z,67.23
2022-08-20T16:01:24.226Z,67.79
2022-08-20T16:04:11.641Z,67.55
2022-08-20T16:06:41.101Z,67.60
2022-08-20T16:09:22.904Z,67.80
2022-08-20T16:11:53.506Z,67.67
2022-08-20T16:14:23.581Z,67.75
2022-08-20T16:17:01.239Z,67.78
2022-08-20T16:19:40.872Z,67.95
2022-08-20T16:22:12.588Z,68.12
2022-08-20T16:24:41.036Z,68.08
2022-08-20T16:27:14.648Z,68.12
2022-08-20T16:29:52.042Z,68.11
2022-08-20T16:32:35.053Z,68.00
2022-08-20T16:35:29.437Z,68.03
2022-08-20T16:38:03.869Z,67.43
2022-08-20T16:40:34.902Z,67.43
2022-08-20T16:43:06.089Z,67.39
2022-08-20T16:45:38.296Z,67.56
2022-08-20T16:48:12.436Z,67.22
2022-08-20T16:50:49.209Z,67.70
2022-08-20T16:53:20.735Z,67.41
2022-08-20T16:55:49.249Z,67.34
2022-08-20T16:58:17.891Z,67.47
2022-08-20T17:00:46.444Z,67.64
2022-08-20T17:03:33.535Z,67.65
2022-08-20T17:06:17.079Z,67.57
2022-08-20T17:08:50.818Z,67.53
2022-08-20T17:11:25.721Z,67.71
2022-08-20T17:14:05.933Z,67.61
2022-08-20T17:16:36.168Z,67.66
2022-08-20T17:19:10.560Z,67.38
2022-08-20T17:21:41.114Z,67.05
2022-08-20T17:24:16.844Z,67.65
2022-08-20T17:26:47.168Z,67.59
2022-08-20T17:29:19.212Z,67.61
2022-08-20T17:31:50.309Z,66.69
2022-08-20T17:34:22.421Z,67.67
2022-08-20T17:36:56.930Z,67.53
2022-08-20T17:39:27.404Z,67.63
2022-08-20T17:42:04.513Z,67.43
2022-08-20T17:44:37.776Z,68.05
2022-08-20T17:47:12.343Z,67.51
2022-08-20T17:49:44.857Z,67.72
2022-08-20T17:52:32.648Z,66.91
2022-08-20T17:55:02.887Z,67.75
2022-08-20T17:57:36.867Z,67.44
2022-08-20T18:00:09.757Z,67.26
2022-08-20T18:02:38.819Z,67.40
2022-08-20T18:05:12.101Z,67.44
2022-08-20T18:07:55.242Z,66.98
2022-08-20T18:10:28.234Z,67.35
2022-08-20T18:13:00.021Z,67.09
2022-08-20T18:15:31.268Z,67.23
2022-08-20T18:18:11.108Z,67.14
2022-08-20T18:21:01.004Z,66.75
2022-08-20T18:23:32.475Z,67.50
2022-08-20T18:26:05.549Z,67.39
2022-08-20T18:28:40.881Z,67.48
2022-08-20T18:31:10.502Z,67.91
2022-08-20T18:33:42.035Z,67.53
2022-08-20T18:36:13.605Z,67.85
2022-08-20T18:38:43.821Z,64.91
2022-08-20T18:41:15.895Z,65.46
2022-08-20T18:43:44.821Z,65.20
2022-08-20T18:46:21.031Z,65.04
2022-08-20T18:48:56.373Z,65.07
2022-08-20T18:51:30.161Z,64.62
2022-08-20T18:54:00.155Z,65.10
2022-08-20T18:56:37.457Z,65.06
2022-08-20T18:59:11.332Z,64.68
2022-08-20T19:01:41.549Z,64.52
2022-08-20T19:04:27.794Z,65.01
2022-08-20T19:06:59.075Z,64.22
2022-08-20T19:09:57.321Z,65.17
2022-08-20T19:12:39.233Z,64.50
2022-08-20T19:15:09.334Z,64.73
2022-08-20T19:18:01.913Z,64.73
2022-08-20T19:20:33.513Z,64.66
2022-08-20T19:23:06.816Z,64.19
2022-08-20T19:25:40.227Z,64.58
2022-08-20T19:28:18.865Z,64.58
2022-08-20T19:30:47.325Z,64.48
2022-08-20T19:33:16.140Z,64.20
2022-08-20T19:35:48.082Z,64.33
2022-08-20T19:38:17.626Z,64.48
2022-08-20T19:40:47.510Z,64.37
2022-08-20T19:43:21.711Z,64.34
2022-08-20T19:45:54.231Z,64.42
2022-08-20T19:48:32.767Z,64.25
2022-08-20T19:51:07.913Z,64.07
2022-08-20T19:53:38.610Z,64.43
2022-08-20T19:56:11.943Z,64.11
2022-08-20T19:58:40.665Z,64.17
2022-08-20T20:01:11.952Z,64.41
2022-08-20T20:03:40.553Z,64.37
2022-08-20T20:06:17.249Z,64.24
2022-08-20T20:08:51.777Z,64.49
2022-08-20T20:11:24.678Z,64.36
2022-08-20T20:13:53.786Z,63.98
2022-08-20T20:16:22.739Z,64.08
2022-08-20T20:19:15.654Z,63.92
2022-08-20T20:21:43.032Z,64.22
2022-08-20T20:24:12.275Z,64.18
2022-08-20T20:26:42.670Z,64.36
2022-08-20T20:29:13.688Z,64.21
2022-08-20T20:31:50.677Z,64.20
2022-08-20T20:34:25.889Z,63.97
2022-08-20T20:37:05.006Z,64.08
2022-08-20T20:39:36.055Z,64.03
2022-08-20T20:42:08.422Z,64.02
2022-08-20T20:44:38.269Z,63.98
2022-08-20T20:47:09.716Z,63.82
2022-08-20T20:49:49.207Z,63.98
2022-08-20T20:52:23.690Z,63.99
2022-08-20T20:54:53.336Z,64.14
2022-08-20T20:57:38.786Z,63.89
2022-08-20T21:00:12.036Z,63.81
2022-08-20T21:02:40.723Z,63.94
2022-08-20T21:05:10.477Z,63.89
2022-08-20T21:07:46.189Z,63.92
2022-08-20T21:10:24.452Z,63.88
2022-08-20T21:12:55.193Z,64.03
2022-08-20T21:15:25.585Z,64.04
2022-08-20T21:17:54.902Z,63.92
2022-08-20T21:20:23.895Z,63.98
2022-08-20T21:22:52.406Z,64.12
2022-08-20T21:25:23.815Z,63.46
2022-08-20T21:27:54.868Z,63.44
2022-08-20T21:30:24.447Z,63.71
2022-08-20T21:32:53.252Z,63.46
2022-08-20T21:35:21.992Z,63.44
2022-08-20T21:37:50.538Z,63.63
2022-08-20T21:40:21.739Z,63.58
2022-08-20T21:42:51.345Z,63.46
2022-08-20T21:45:21.483Z,63.68
2022-08-20T21:47:49.941Z,63.53
2022-08-20T21:50:19.078Z,63.61
2022-08-20T21:52:59.369Z,63.74
2022-08-20T21:55:30.052Z,63.62
2022-08-20T21:57:58.860Z,63.68
2022-08-20T22:01:02.669Z,63.63
2022-08-20T22:03:33.841Z,63.62
2022-08-20T22:06:07.061Z,63.64
2022-08-20T22:08:35.773Z,63.55
2022-08-20T22:11:06.127Z,63.41
2022-08-20T22:13:35.177Z,63.35
2022-08-20T22:16:06.859Z,63.76
2022-08-20T22:18:36.092Z,63.21
2022-08-20T22:21:08.332Z,63.59
2022-08-20T22:23:39.954Z,63.52
2022-08-20T22:26:08.944Z,63.95
2022-08-20T22:28:38.661Z,63.72
2022-08-20T22:31:08.726Z,63.96
2022-08-20T22:33:39.855Z,63.42
2022-08-20T22:36:08.793Z,63.59
2022-08-20T22:38:37.221Z,63.55
2022-08-20T22:41:09.531Z,63.86
2022-08-20T22:43:46.233Z,63.63
2022-08-20T22:46:28.554Z,63.68
2022-08-20T22:48:57.331Z,63.66
2022-08-20T22:51:30.249Z,63.55
2022-08-20T22:53:59.568Z,63.43
2022-08-20T22:56:29.913Z,63.63
2022-08-20T22:58:59.448Z,63.62
2022-08-20T23:01:30.014Z,63.59
2022-08-20T23:03:58.963Z,63.66
2022-08-20T23:06:28.197Z,63.45
2022-08-20T23:08:56.945Z,63.56
2022-08-20T23:11:25.360Z,63.82
2022-08-20T23:13:53.769Z,63.68
2022-08-20T23:16:22.184Z,63.64
2022-08-20T23:18:52.254Z,63.65
2022-08-20T23:21:20.758Z,63.58
2022-08-20T23:23:49.209Z,63.56
2022-08-20T23:26:21.181Z,63.46
2022-08-20T23:28:49.784Z,63.60
2022-08-20T23:31:18.659Z,63.55
2022-08-20T23:33:47.120Z,63.73
2022-08-20T23:36:17.867Z,63.72
2022-08-20T23:38:46.619Z,63.70
2022-08-20T23:41:15.206Z,63.69
2022-08-20T23:43:44.112Z,63.86
2022-08-20T23:46:13.213Z,63.61
2022-08-20T23:48:41.635Z,63.68
2022-08-20T23:51:10.245Z,63.64
2022-08-20T23:53:40.068Z,63.79
2022-08-20T23:56:08.605Z,63.70
2022-08-20T23:58:37.454Z,63.39
